createdAt,value
2023-01-08T00:02:11.922Z,0.96
2023-01-08T00:04:38.281Z,0.99
2023-01-08T00:07:04.772Z,1.04
2023-01-08T00:09:31.109Z,0.96
2023-01-08T00:11:57.517Z,0.93
2023-01-08T00:14:23.983Z,0.92
2023-01-08T00:16:51.765Z,0.95
2023-01-08T00:19:18.655Z,0.92
2023-01-08T00:21:45.059Z,0.89
2023-01-08T00:24:11.481Z,0.91
2023-01-08T00:26:37.816Z,0.91
2023-01-08T00:29:04.200Z,0.91
2023-01-08T00:31:30.633Z,0.79
2023-01-08T00:33:57.077Z,0.75
2023-01-08T00:36:23.508Z,0.79
2023-01-08T00:38:49.969Z,0.76
2023-01-08T00:41:16.901Z,0.55
2023-01-08T00:43:43.312Z,0.72
2023-01-08T00:46:10.012Z,0.71
2023-01-08T00:48:39.390Z,0.70
2023-01-08T00:51:07.799Z,0.66
2023-01-08T00:53:34.471Z,0.57
2023-01-08T00:56:07.144Z,0.64
2023-01-08T00:58:33.529Z,0.61
2023-01-08T01:01:00.225Z,0.60
2023-01-08T01:03:26.703Z,0.49
2023-01-08T01:06:06.166Z,0.58
2023-01-08T01:08:33.617Z,0.56
2023-01-08T01:11:00.047Z,0.58
2023-01-08T01:13:26.612Z,0.46
2023-01-08T01:16:00.773Z,0.55
2023-01-08T01:18:27.804Z,0.55
2023-01-08T01:20:54.254Z,0.45
2023-01-08T01:23:20.729Z,0.47
2023-01-08T01:25:47.127Z,0.50
2023-01-08T01:28:13.544Z,0.49
2023-01-08T01:30:39.983Z,0.49
2023-01-08T01:33:06.340Z,0.41
2023-01-08T01:35:32.730Z,0.41
2023-01-08T01:37:59.045Z,0.44
2023-01-08T01:40:25.355Z,0.46
2023-01-08T01:42:51.704Z,0.38
2023-01-08T01:45:22.261Z,0.45
2023-01-08T01:48:01.924Z,0.39
2023-01-08T01:50:37.985Z,0.39
2023-01-08T01:53:12.045Z,0.46
2023-01-08T01:55:42.572Z,0.29
2023-01-08T01:58:23.916Z,0.38
2023-01-08T02:00:52.225Z,0.43
2023-01-08T02:03:23.767Z,0.40
2023-01-08T02:06:03.363Z,0.27
2023-01-08T02:08:48.176Z,0.38
2023-01-08T02:11:29.536Z,0.35
2023-01-08T02:14:04.382Z,0.37
2023-01-08T02:16:43.309Z,0.25
2023-01-08T02:19:42.932Z,0.31
2023-01-08T02:22:31.132Z,0.26
2023-01-08T02:25:06.653Z,0.13
2023-01-08T02:27:35.756Z,0.25
2023-01-08T02:30:04.351Z,0.28
2023-01-08T02:32:37.548Z,0.24
2023-01-08T02:35:05.575Z,0.27
2023-01-08T02:37:32.011Z,0.31
2023-01-08T02:40:19.779Z,0.28
2023-01-08T02:43:00.177Z,0.31
2023-01-08T02:45:48.170Z,0.25
2023-01-08T02:48:37.196Z,0.26
2023-01-08T02:51:13.841Z,0.22
2023-01-08T02:53:45.122Z,0.27
2023-01-08T02:56:16.444Z,0.17
2023-01-08T02:58:44.488Z,0.25
2023-01-08T03:01:12.999Z,0.27
2023-01-08T03:03:42.161Z,0.20
2023-01-08T03:06:12.845Z,0.22
2023-01-08T03:08:42.064Z,0.23
2023-01-08T03:11:11.569Z,0.25
2023-01-08T03:13:50.864Z,0.22
2023-01-08T03:16:55.360Z,0.24
2023-01-08T03:19:44.148Z,0.24
2023-01-08T03:22:14.297Z,0.11
2023-01-08T03:24:43.833Z,-0.02
2023-01-08T03:27:16.699Z,0.01
2023-01-08T03:29:46.060Z,0.02
2023-01-08T03:32:16.667Z,0.07
2023-01-08T03:34:46.783Z,0.05
2023-01-08T03:37:15.654Z,0.04
2023-01-08T03:39:51.715Z,0.08
2023-01-08T03:42:20.293Z,0.02
2023-01-08T03:44:46.959Z,0.09
2023-01-08T03:47:15.209Z,0.04
2023-01-08T03:49:44.504Z,-0.03
2023-01-08T03:52:21.424Z,-0.11
2023-01-08T03:54:47.853Z,-0.05
2023-01-08T03:57:14.304Z,-0.01
2023-01-08T03:59:40.642Z,-0.17
2023-01-08T04:02:07.039Z,-0.03
2023-01-08T04:04:33.587Z,-0.09
2023-01-08T04:07:00.039Z,-0.05
2023-01-08T04:09:26.475Z,-0.04
2023-01-08T04:11:52.852Z,-0.15
2023-01-08T04:14:19.477Z,-0.04
2023-01-08T04:16:45.986Z,0.00
2023-01-08T04:19:12.813Z,-0.02
2023-01-08T04:21:39.542Z,-0.05
2023-01-08T04:24:06.560Z,-0.07
2023-01-08T04:26:32.909Z,0.02
2023-01-08T04:28:59.362Z,-0.01
2023-01-08T04:31:25.861Z,0.02
2023-01-08T04:33:52.220Z,-0.03
2023-01-08T04:36:18.582Z,0.05
2023-01-08T04:38:45.000Z,0.10
2023-01-08T04:41:11.312Z,0.13
2023-01-08T04:43:37.829Z,0.21
2023-01-08T04:46:08.900Z,0.26
2023-01-08T04:48:35.822Z,0.26
2023-01-08T04:51:04.182Z,0.22
2023-01-08T04:53:34.345Z,0.34
2023-01-08T04:56:09.299Z,0.39
2023-01-08T04:58:36.735Z,0.33
2023-01-08T05:01:21.513Z,0.33
2023-01-08T05:03:48.470Z,0.38
2023-01-08T05:06:14.788Z,0.35
2023-01-08T05:08:41.110Z,0.37
2023-01-08T05:11:07.448Z,0.43
2023-01-08T05:13:33.811Z,0.44
2023-01-08T05:16:01.092Z,0.40
2023-01-08T05:18:28.636Z,0.37
2023-01-08T05:20:55.652Z,0.36
2023-01-08T05:23:22.077Z,0.38
2023-01-08T05:25:48.377Z,0.37
2023-01-08T05:28:14.728Z,0.28
2023-01-08T05:30:41.170Z,0.28
2023-01-08T05:33:07.587Z,0.24
2023-01-08T05:35:33.974Z,0.28
2023-01-08T05:38:00.691Z,0.13
2023-01-08T05:40:27.049Z,0.10
2023-01-08T05:42:53.453Z,0.08
2023-01-08T05:45:20.121Z,0.18
2023-01-08T05:47:46.504Z,0.18
2023-01-08T05:50:12.799Z,0.07
2023-01-08T05:52:39.177Z,0.05
2023-01-08T05:55:05.968Z,0.13
2023-01-08T05:57:32.297Z,0.19
2023-01-08T05:59:58.599Z,0.12
2023-01-08T06:02:24.990Z,0.09
2023-01-08T06:04:51.386Z,0.20
2023-01-08T06:07:17.905Z,0.22
2023-01-08T06:09:44.307Z,0.28
2023-01-08T06:12:10.695Z,0.31
2023-01-08T06:14:37.040Z,0.28
2023-01-08T06:17:03.457Z,0.30
2023-01-08T06:19:29.797Z,0.32
2023-01-08T06:21:56.502Z,0.39
2023-01-08T06:24:22.893Z,0.26
2023-01-08T06:26:49.215Z,0.41
2023-01-08T06:29:15.585Z,0.41
2023-01-08T06:31:41.980Z,0.20
2023-01-08T06:34:08.309Z,0.37
2023-01-08T06:36:34.754Z,0.43
2023-01-08T06:39:01.110Z,0.41
2023-01-08T06:41:27.470Z,0.40
2023-01-08T06:43:53.849Z,0.35
2023-01-08T06:46:20.371Z,0.29
2023-01-08T06:48:46.726Z,0.34
2023-01-08T06:51:13.059Z,0.32
2023-01-08T06:53:39.435Z,0.24
2023-01-08T06:56:09.201Z,0.36
2023-01-08T06:58:35.560Z,0.49
2023-01-08T07:01:01.890Z,0.54
2023-01-08T07:03:28.731Z,0.63
2023-01-08T07:05:55.812Z,0.65
2023-01-08T07:08:25.061Z,0.73
2023-01-08T07:10:51.449Z,0.75
2023-01-08T07:13:17.785Z,0.73
2023-01-08T07:15:44.233Z,0.86
2023-01-08T07:18:11.934Z,0.85
2023-01-08T07:20:38.913Z,0.89
2023-01-08T07:23:07.724Z,0.99
2023-01-08T07:25:34.048Z,1.07
2023-01-08T07:28:00.740Z,1.04
2023-01-08T07:30:30.168Z,1.06
2023-01-08T07:33:02.603Z,1.11
2023-01-08T07:35:29.239Z,1.13
2023-01-08T07:37:56.029Z,1.08
2023-01-08T07:40:23.071Z,1.03
2023-01-08T07:42:57.482Z,1.17
2023-01-08T07:45:23.805Z,1.20
2023-01-08T07:47:50.110Z,1.26
2023-01-08T07:50:16.585Z,1.25
2023-01-08T07:52:42.980Z,1.34
2023-01-08T07:55:09.771Z,1.38
2023-01-08T07:57:36.102Z,1.48
2023-01-08T08:00:02.411Z,1.56
2023-01-08T08:02:28.903Z,1.60
2023-01-08T08:04:55.376Z,1.60
2023-01-08T08:07:21.715Z,1.67
2023-01-08T08:09:48.046Z,1.76
2023-01-08T08:12:15.129Z,1.79
2023-01-08T08:14:41.444Z,1.82
2023-01-08T08:17:07.904Z,1.89
2023-01-08T08:19:34.208Z,1.95
2023-01-08T08:22:00.560Z,1.99
2023-01-08T08:24:26.925Z,1.98
2023-01-08T08:26:54.325Z,2.05
2023-01-08T08:29:20.612Z,2.10
2023-01-08T08:31:47.048Z,2.02
2023-01-08T08:34:13.371Z,2.13
2023-01-08T08:36:39.697Z,2.15
2023-01-08T08:39:06.004Z,2.18
2023-01-08T08:41:32.313Z,2.09
2023-01-08T08:43:58.672Z,2.10
2023-01-08T08:46:25.889Z,2.05
2023-01-08T08:48:52.343Z,2.25
2023-01-08T08:51:18.653Z,2.18
2023-01-08T08:53:44.954Z,2.23
2023-01-08T08:56:11.305Z,2.25
2023-01-08T08:58:37.636Z,2.26
2023-01-08T09:01:04.537Z,2.37
2023-01-08T09:03:31.345Z,2.38
2023-01-08T09:05:59.746Z,2.30
2023-01-08T09:08:26.439Z,2.38
2023-01-08T09:10:52.786Z,2.23
2023-01-08T09:13:19.159Z,2.42
2023-01-08T09:15:45.521Z,2.41
2023-01-08T09:18:11.940Z,2.59
2023-01-08T09:20:38.551Z,2.67
2023-01-08T09:23:05.348Z,2.59
2023-01-08T09:25:31.716Z,2.42
2023-01-08T09:28:06.112Z,2.66
2023-01-08T09:30:33.169Z,2.86
2023-01-08T09:33:02.896Z,3.05
2023-01-08T09:35:30.283Z,2.93
2023-01-08T09:37:56.994Z,2.86
2023-01-08T09:40:28.411Z,3.20
2023-01-08T09:42:59.523Z,3.26
2023-01-08T09:45:29.868Z,3.07
2023-01-08T09:48:01.760Z,3.28
2023-01-08T09:50:30.416Z,3.35
2023-01-08T09:52:57.010Z,3.15
2023-01-08T09:55:23.554Z,3.36
2023-01-08T09:57:50.192Z,3.44
2023-01-08T10:00:29.802Z,3.60
2023-01-08T10:02:57.618Z,3.69
2023-01-08T10:05:26.884Z,3.83
2023-01-08T10:07:53.252Z,3.92
2023-01-08T10:10:27.922Z,4.20
2023-01-08T10:12:54.706Z,4.16
2023-01-08T10:15:22.606Z,4.27
2023-01-08T10:18:00.408Z,4.40
2023-01-08T10:20:27.087Z,4.22
2023-01-08T10:22:54.183Z,4.51
2023-01-08T10:25:24.127Z,4.26
2023-01-08T10:27:53.300Z,4.49
2023-01-08T10:30:33.403Z,4.39
2023-01-08T10:33:11.481Z,4.57
2023-01-08T10:35:40.231Z,4.56
2023-01-08T10:38:06.612Z,4.29
2023-01-08T10:40:51.906Z,4.68
2023-01-08T10:43:42.521Z,4.68
2023-01-08T10:46:20.607Z,4.68
2023-01-08T10:48:53.083Z,4.56
2023-01-08T10:51:23.660Z,4.40
2023-01-08T10:53:50.553Z,4.47
2023-01-08T10:56:28.845Z,4.57
2023-01-08T10:58:56.005Z,4.63
2023-01-08T11:01:25.291Z,4.74
2023-01-08T11:04:04.783Z,4.92
2023-01-08T11:06:41.075Z,4.83
2023-01-08T11:09:37.992Z,4.91
2023-01-08T11:12:04.632Z,4.88
2023-01-08T11:14:35.326Z,4.73
2023-01-08T11:17:10.094Z,4.73
2023-01-08T11:19:36.861Z,4.91
2023-01-08T11:22:19.209Z,4.67
2023-01-08T11:24:46.655Z,4.75
2023-01-08T11:27:16.406Z,4.78
2023-01-08T11:29:57.151Z,4.84
2023-01-08T11:32:33.566Z,4.76
2023-01-08T11:35:12.092Z,4.48
2023-01-08T11:37:48.157Z,4.64
2023-01-08T11:40:16.882Z,4.57
2023-01-08T11:42:48.723Z,4.70
2023-01-08T11:45:49.891Z,4.87
2023-01-08T11:48:29.461Z,5.00
2023-01-08T11:51:17.176Z,4.83
2023-01-08T11:53:50.748Z,4.83
2023-01-08T11:56:36.469Z,4.77
2023-01-08T11:59:14.347Z,4.80
2023-01-08T12:02:08.184Z,4.90
2023-01-08T12:04:46.464Z,4.78
2023-01-08T12:07:36.357Z,4.89
2023-01-08T12:10:05.353Z,4.71
2023-01-08T12:12:43.904Z,4.72
2023-01-08T12:15:39.567Z,4.75
2023-01-08T12:18:35.179Z,4.73
2023-01-08T12:21:19.360Z,4.67
2023-01-08T12:24:13.932Z,4.66
2023-01-08T12:26:46.138Z,4.72
2023-01-08T12:29:35.637Z,4.60
2023-01-08T12:32:17.219Z,4.69
2023-01-08T12:35:07.753Z,4.72
2023-01-08T12:37:44.048Z,4.71
2023-01-08T12:40:28.734Z,4.69
2023-01-08T12:43:01.124Z,4.69
2023-01-08T12:45:32.317Z,4.77
2023-01-08T12:48:04.607Z,4.80
2023-01-08T12:50:39.519Z,4.80
2023-01-08T12:53:08.527Z,4.87
2023-01-08T12:55:48.504Z,4.74
2023-01-08T12:58:38.882Z,4.88
2023-01-08T13:01:29.259Z,4.79
2023-01-08T13:03:58.984Z,4.81
2023-01-08T13:06:26.173Z,4.76
2023-01-08T13:08:55.752Z,4.96
2023-01-08T13:11:25.999Z,5.09
2023-01-08T13:14:01.146Z,4.91
2023-01-08T13:16:27.686Z,4.99
2023-01-08T13:18:56.745Z,5.02
2023-01-08T13:21:32.248Z,4.98
2023-01-08T13:24:31.629Z,4.91
2023-01-08T13:27:10.945Z,4.98
2023-01-08T13:29:41.165Z,4.94
2023-01-08T13:32:34.542Z,4.93
2023-01-08T13:35:16.175Z,5.03
2023-01-08T13:37:47.155Z,5.05
2023-01-08T13:40:44.628Z,4.82
2023-01-08T13:43:19.186Z,4.92
2023-01-08T13:45:57.934Z,4.81
2023-01-08T13:48:27.873Z,4.90
2023-01-08T13:50:54.476Z,4.73
2023-01-08T13:53:21.621Z,4.86
2023-01-08T13:56:00.149Z,4.77
2023-01-08T13:58:30.995Z,4.81
2023-01-08T14:00:59.715Z,4.85
2023-01-08T14:03:28.818Z,4.75
2023-01-08T14:06:13.300Z,4.63
2023-01-08T14:08:57.085Z,4.73
2023-01-08T14:11:27.759Z,4.73
2023-01-08T14:13:54.367Z,4.58
2023-01-08T14:16:21.609Z,4.63
2023-01-08T14:18:49.505Z,4.72
2023-01-08T14:21:21.668Z,4.76
2023-01-08T14:23:49.823Z,4.75
2023-01-08T14:26:26.675Z,4.71
2023-01-08T14:28:54.582Z,4.75
2023-01-08T14:31:23.233Z,4.74
2023-01-08T14:33:52.454Z,4.66
2023-01-08T14:36:20.742Z,4.71
2023-01-08T14:38:50.820Z,4.63
2023-01-08T14:41:46.724Z,4.66
2023-01-08T14:44:16.201Z,4.63
2023-01-08T14:46:46.189Z,4.72
2023-01-08T14:49:44.429Z,4.60
2023-01-08T14:52:14.909Z,4.59
2023-01-08T14:54:41.352Z,4.68
2023-01-08T14:57:07.729Z,4.67
2023-01-08T14:59:40.022Z,4.69
2023-01-08T15:02:15.087Z,4.59
2023-01-08T15:04:41.473Z,4.63
2023-01-08T15:07:18.536Z,4.51
2023-01-08T15:09:56.016Z,4.57
2023-01-08T15:12:25.557Z,4.53
2023-01-08T15:14:52.216Z,4.51
2023-01-08T15:17:20.943Z,4.57
2023-01-08T15:19:52.719Z,4.46
2023-01-08T15:22:22.733Z,4.38
2023-01-08T15:25:08.634Z,4.47
2023-01-08T15:27:37.149Z,4.42
2023-01-08T15:30:06.087Z,4.40
2023-01-08T15:32:36.794Z,4.39
2023-01-08T15:35:18.073Z,4.37
2023-01-08T15:37:44.764Z,4.34
2023-01-08T15:40:12.116Z,4.37
2023-01-08T15:42:57.416Z,4.37
2023-01-08T15:45:29.236Z,4.40
2023-01-08T15:47:56.136Z,4.44
2023-01-08T15:50:24.505Z,4.41
2023-01-08T15:52:50.922Z,4.44
2023-01-08T15:55:21.618Z,4.39
2023-01-08T15:57:48.571Z,4.36
2023-01-08T16:00:17.114Z,4.43
2023-01-08T16:02:51.756Z,4.39
2023-01-08T16:05:19.874Z,4.41
2023-01-08T16:07:46.497Z,4.41
2023-01-08T16:10:16.945Z,4.35
2023-01-08T16:12:43.660Z,4.40
2023-01-08T16:15:11.443Z,4.45
2023-01-08T16:17:37.933Z,4.38
2023-01-08T16:20:05.284Z,4.35
2023-01-08T16:22:31.734Z,4.42
2023-01-08T16:24:58.146Z,4.35
2023-01-08T16:27:24.691Z,4.38
2023-01-08T16:29:51.397Z,4.45
2023-01-08T16:32:17.942Z,4.42
2023-01-08T16:34:44.273Z,4.37
2023-01-08T16:37:10.596Z,4.37
2023-01-08T16:39:36.916Z,4.40
2023-01-08T16:42:04.862Z,4.26
2023-01-08T16:44:32.328Z,4.22
2023-01-08T16:47:01.754Z,4.32
2023-01-08T16:49:28.377Z,4.29
2023-01-08T16:51:54.753Z,4.29
2023-01-08T16:54:21.631Z,4.30
2023-01-08T16:56:48.125Z,4.23
2023-01-08T16:59:22.784Z,4.26
2023-01-08T17:01:50.277Z,4.21
2023-01-08T17:04:16.659Z,4.20
2023-01-08T17:06:43.093Z,4.29
2023-01-08T17:09:11.515Z,4.33
2023-01-08T17:11:38.345Z,4.39
2023-01-08T17:14:04.692Z,4.44
2023-01-08T17:16:31.046Z,4.45
2023-01-08T17:18:57.444Z,4.47
2023-01-08T17:21:23.832Z,4.50
2023-01-08T17:23:50.253Z,4.48
2023-01-08T17:26:19.945Z,4.53
2023-01-08T17:28:47.323Z,4.46
2023-01-08T17:31:17.502Z,4.51
2023-01-08T17:33:45.186Z,4.54
2023-01-08T17:36:22.845Z,4.57
2023-01-08T17:38:53.280Z,4.66
2023-01-08T17:41:39.411Z,4.63
2023-01-08T17:44:07.688Z,4.57
2023-01-08T17:46:35.915Z,4.57
2023-01-08T17:49:03.745Z,4.54
2023-01-08T17:51:32.228Z,4.52
2023-01-08T17:53:59.055Z,4.55
2023-01-08T17:56:25.679Z,4.54
2023-01-08T17:58:52.087Z,4.59
2023-01-08T18:01:19.446Z,4.59
2023-01-08T18:03:46.106Z,4.54
2023-01-08T18:06:13.057Z,4.53
2023-01-08T18:08:40.189Z,4.50
2023-01-08T18:11:08.777Z,4.54
2023-01-08T18:13:35.213Z,4.50
2023-01-08T18:16:06.781Z,4.47
2023-01-08T18:18:33.478Z,4.44
2023-01-08T18:20:59.871Z,4.46
2023-01-08T18:23:26.369Z,4.44
2023-01-08T18:25:52.901Z,4.48
2023-01-08T18:28:19.341Z,4.49
2023-01-08T18:30:45.759Z,4.45
2023-01-08T18:33:13.405Z,4.40
2023-01-08T18:35:40.109Z,4.37
2023-01-08T18:38:09.709Z,4.39
2023-01-08T18:40:36.317Z,4.39
2023-01-08T18:43:02.618Z,4.43
2023-01-08T18:45:35.010Z,4.45
2023-01-08T18:48:02.666Z,4.37
2023-01-08T18:50:29.102Z,4.39
2023-01-08T18:52:55.438Z,4.41
2023-01-08T18:55:21.851Z,4.40
2023-01-08T18:57:49.645Z,4.35
2023-01-08T19:00:16.187Z,4.32
2023-01-08T19:02:43.465Z,4.33
2023-01-08T19:05:10.384Z,4.28
2023-01-08T19:07:36.699Z,4.31
2023-01-08T19:10:03.620Z,4.24
2023-01-08T19:12:32.265Z,4.17
2023-01-08T19:14:58.941Z,4.11
2023-01-08T19:17:25.465Z,4.02
2023-01-08T19:19:51.910Z,4.04
2023-01-08T19:22:18.284Z,4.03
2023-01-08T19:24:44.605Z,4.15
2023-01-08T19:27:10.896Z,4.22
2023-01-08T19:29:37.338Z,4.25
2023-01-08T19:32:03.934Z,4.32
2023-01-08T19:34:30.298Z,4.34
2023-01-08T19:36:57.335Z,4.36
2023-01-08T19:39:23.660Z,4.39
2023-01-08T19:42:10.351Z,4.42
2023-01-08T19:44:38.476Z,4.31
2023-01-08T19:47:04.853Z,4.32
2023-01-08T19:49:31.175Z,4.29
2023-01-08T19:51:57.495Z,4.20
2023-01-08T19:54:25.793Z,4.17
2023-01-08T19:56:55.414Z,4.11
2023-01-08T19:59:21.892Z,4.07
2023-01-08T20:01:48.600Z,3.97
2023-01-08T20:04:14.978Z,4.00
2023-01-08T20:06:41.325Z,4.10
2023-01-08T20:09:09.011Z,4.08
2023-01-08T20:11:35.471Z,4.04
2023-01-08T20:14:02.808Z,4.01
2023-01-08T20:16:29.893Z,3.98
2023-01-08T20:18:58.153Z,4.05
2023-01-08T20:21:24.916Z,3.98
2023-01-08T20:23:58.025Z,3.91
2023-01-08T20:26:27.293Z,3.85
2023-01-08T20:28:56.569Z,3.87
2023-01-08T20:31:26.046Z,3.91
2023-01-08T20:33:52.679Z,3.79
2023-01-08T20:36:22.141Z,3.81
2023-01-08T20:38:56.622Z,3.82
2023-01-08T20:41:24.117Z,3.93
2023-01-08T20:43:50.652Z,3.93
2023-01-08T20:46:17.161Z,3.84
2023-01-08T20:48:47.820Z,3.92
2023-01-08T20:51:15.575Z,3.82
2023-01-08T20:53:42.126Z,3.88
2023-01-08T20:56:11.556Z,3.79
2023-01-08T20:58:40.003Z,3.79
2023-01-08T21:01:15.742Z,3.83
2023-01-08T21:03:43.552Z,3.77
2023-01-08T21:06:13.602Z,3.82
2023-01-08T21:08:40.913Z,3.82
2023-01-08T21:11:08.798Z,3.85
2023-01-08T21:13:36.099Z,3.98
2023-01-08T21:16:07.378Z,4.00
2023-01-08T21:18:34.107Z,4.03
2023-01-08T21:21:02.125Z,3.95
2023-01-08T21:23:29.617Z,4.02
2023-01-08T21:26:01.787Z,4.03
2023-01-08T21:28:29.306Z,4.00
2023-01-08T21:30:55.889Z,4.02
2023-01-08T21:33:22.595Z,4.06
2023-01-08T21:35:48.937Z,4.11
2023-01-08T21:38:15.276Z,4.09
2023-01-08T21:40:41.647Z,4.09
2023-01-08T21:43:30.462Z,4.02
2023-01-08T21:46:01.164Z,3.92
2023-01-08T21:48:28.507Z,3.91
2023-01-08T21:50:55.690Z,3.96
2023-01-08T21:53:31.191Z,3.83
2023-01-08T21:56:02.394Z,3.73
2023-01-08T21:58:30.382Z,3.73
2023-01-08T22:00:57.765Z,3.66
2023-01-08T22:03:24.723Z,3.66
2023-01-08T22:06:03.320Z,3.61
2023-01-08T22:08:31.132Z,3.66
2023-01-08T22:10:58.646Z,3.62
2023-01-08T22:13:25.635Z,3.63
2023-01-08T22:16:01.779Z,3.66
2023-01-08T22:18:28.215Z,3.69
2023-01-08T22:21:14.863Z,3.70
2023-01-08T22:23:41.276Z,3.68
2023-01-08T22:26:10.057Z,3.62
2023-01-08T22:28:40.279Z,3.59
2023-01-08T22:31:11.899Z,3.51
2023-01-08T22:33:39.505Z,3.57
2023-01-08T22:36:11.150Z,3.60
2023-01-08T22:38:37.872Z,3.51
2023-01-08T22:41:04.947Z,3.57
2023-01-08T22:43:31.302Z,3.45
2023-01-08T22:45:59.858Z,3.54
2023-01-08T22:48:27.180Z,3.57
2023-01-08T22:50:53.806Z,3.62
2023-01-08T22:53:20.231Z,3.49
2023-01-08T22:55:47.980Z,3.59
2023-01-08T22:58:17.735Z,3.64
2023-01-08T23:00:44.567Z,3.59
2023-01-08T23:03:11.196Z,3.64
2023-01-08T23:05:37.600Z,3.60
2023-01-08T23:08:04.229Z,3.67
2023-01-08T23:10:30.986Z,3.68
2023-01-08T23:12:57.350Z,3.74
2023-01-08T23:15:24.661Z,3.79
2023-01-08T23:17:52.407Z,3.74
2023-01-08T23:20:19.903Z,3.65
2023-01-08T23:22:47.823Z,3.67
2023-01-08T23:25:14.820Z,3.67
2023-01-08T23:27:41.299Z,3.71
2023-01-08T23:30:08.178Z,3.68
2023-01-08T23:32:34.535Z,3.70
2023-01-08T23:35:00.820Z,3.68
2023-01-08T23:37:27.164Z,3.63
2023-01-08T23:39:53.575Z,3.62
2023-01-08T23:42:19.935Z,3.64
2023-01-08T23:44:46.236Z,3.59
2023-01-08T23:47:12.661Z,3.67
2023-01-08T23:49:39.031Z,3.68
2023-01-08T23:52:05.366Z,3.65
2023-01-08T23:54:31.687Z,3.72
2023-01-08T23:56:57.991Z,3.70
2023-01-08T23:59:24.391Z,3.75
